Time;durP1;ratioP1;P1;durP2;ratioP2;P2;SDS_P1;SDS_P2;PMS_P1;PMS_P2;Temp;Humidity;BMP_temperature;BMP_pressure;BME280_temperature;BME280_humidity;BME280_pressure;Samples;Min_cycle;Max_cycle;Signal;HPM_P1;HPM_P2
2022/08/06 00:00:08;;;;;;;2.10;1.20;;;;;;;;;;4970571;28;20513;-88
2022/08/06 00:02:41;;;;;;;6.28;1.30;;;;;;;;;;4977347;28;20047;-88
2022/08/06 00:05:15;;;;;;;2.83;1.00;;;;;;;;;;4959071;28;20039;-82
2022/08/06 00:07:49;;;;;;;4.20;1.23;;;;;;;;;;4958607;28;20142;-83
2022/08/06 00:10:19;;;;;;;3.20;1.20;;;;;;;;;;4974320;28;20055;-82
2022/08/06 00:12:56;;;;;;;3.88;1.13;;;;;;;;;;4956047;28;20585;-83
2022/08/06 00:15:33;;;;;;;4.63;1.25;;;;;;;;;;4956731;28;20109;-83
2022/08/06 00:18:19;;;;;;;3.03;1.30;;;;;;;;;;4976872;28;20137;-88
2022/08/06 00:20:47;;;;;;;6.45;1.35;;;;;;;;;;4976910;28;20059;-88
2022/08/06 00:23:21;;;;;;;3.72;1.00;;;;;;;;;;4978168;28;20046;-88
2022/08/06 00:25:53;;;;;;;4.53;1.30;;;;;;;;;;4977116;28;20057;-88
2022/08/06 00:28:23;;;;;;;3.88;1.13;;;;;;;;;;4959773;28;20066;-88
2022/08/06 00:31:02;;;;;;;6.28;1.40;;;;;;;;;;4975707;28;20054;-88
2022/08/06 00:33:41;;;;;;;3.20;1.70;;;;;;;;;;4958780;28;20057;-88
2022/08/06 00:36:25;;;;;;;2.17;1.02;;;;;;;;;;4977053;28;20066;-84
2022/08/06 00:39:21;;;;;;;3.63;1.38;;;;;;;;;;4972488;28;20051;-82
2022/08/06 00:42:27;;;;;;;1.42;1.00;;;;;;;;;;4973986;28;20105;-82
2022/08/06 00:44:55;;;;;;;7.50;1.20;;;;;;;;;;4971841;28;20086;-83
2022/08/06 00:47:23;;;;;;;3.50;1.10;;;;;;;;;;4954444;28;20054;-83
2022/08/06 00:50:40;;;;;;;4.13;1.20;;;;;;;;;;4962551;28;20056;-83
2022/08/06 00:53:13;;;;;;;5.63;2.25;;;;;;;;;;4971957;28;20050;-82
2022/08/06 00:55:45;;;;;;;1.75;1.08;;;;;;;;;;4972117;28;20050;-82
2022/08/06 00:58:38;;;;;;;3.05;0.90;;;;;;;;;;4958761;28;20053;-82
2022/08/06 01:01:08;;;;;;;2.08;1.05;;;;;;;;;;4955630;28;20579;-83
2022/08/06 01:03:45;;;;;;;5.25;1.15;;;;;;;;;;4966048;28;20524;-82
2022/08/06 01:06:23;;;;;;;2.13;1.15;;;;;;;;;;4957440;28;20046;-87
2022/08/06 01:09:15;;;;;;;3.50;1.17;;;;;;;;;;4945123;28;20085;-88
2022/08/06 01:11:43;;;;;;;1.38;0.90;;;;;;;;;;4938236;28;20047;-88
2022/08/06 01:14:11;;;;;;;2.58;1.00;;;;;;;;;;4976392;28;20039;-88
2022/08/06 01:17:08;;;;;;;2.63;1.10;;;;;;;;;;4949957;28;20058;-82
2022/08/06 01:20:01;;;;;;;4.53;1.15;;;;;;;;;;4940825;28;20055;-83
2022/08/06 01:23:26;;;;;;;3.78;1.08;;;;;;;;;;4953019;28;20055;-82
2022/08/06 01:26:39;;;;;;;2.58;1.35;;;;;;;;;;4970612;28;20093;-87
2022/08/06 01:29:26;;;;;;;3.85;1.00;;;;;;;;;;4970868;28;20047;-88
2022/08/06 01:32:27;;;;;;;2.97;1.02;;;;;;;;;;4977609;28;20493;-88
2022/08/06 01:35:03;;;;;;;5.70;1.08;;;;;;;;;;4973301;28;20054;-88
2022/08/06 01:37:45;;;;;;;5.30;1.20;;;;;;;;;;4972200;28;20054;-88
2022/08/06 01:40:24;;;;;;;2.08;0.80;;;;;;;;;;4970743;28;20565;-88
2022/08/06 01:42:55;;;;;;;4.38;0.98;;;;;;;;;;4959890;28;20572;-88
2022/08/06 01:45:31;;;;;;;3.85;1.25;;;;;;;;;;4958295;28;20043;-88
2022/08/06 01:48:25;;;;;;;5.38;1.20;;;;;;;;;;4951050;28;20074;-87
2022/08/06 01:51:04;;;;;;;2.72;1.10;;;;;;;;;;4975762;28;20085;-87
2022/08/06 01:53:37;;;;;;;2.15;1.20;;;;;;;;;;4973377;28;20051;-88
2022/08/06 01:56:27;;;;;;;3.63;1.15;;;;;;;;;;4975115;28;20050;-88
2022/08/06 01:59:30;;;;;;;3.45;1.20;;;;;;;;;;4956167;28;20082;-88
2022/08/06 02:02:00;;;;;;;3.40;1.75;;;;;;;;;;4976563;28;20058;-88
2022/08/06 02:04:42;;;;;;;3.80;1.10;;;;;;;;;;4969533;28;20416;-88
2022/08/06 02:07:11;;;;;;;3.25;1.30;;;;;;;;;;4973755;28;20434;-82
2022/08/06 02:10:06;;;;;;;2.30;1.00;;;;;;;;;;4971641;28;20069;-82
2022/08/06 02:12:39;;;;;;;2.08;1.00;;;;;;;;;;4971530;28;20046;-83
2022/08/06 02:15:26;;;;;;;2.88;1.20;;;;;;;;;;4970261;28;20882;-82
2022/08/06 02:18:21;;;;;;;3.30;1.45;;;;;;;;;;4954420;28;20054;-87
2022/08/06 02:21:16;;;;;;;4.32;1.35;;;;;;;;;;4975454;28;20445;-87
2022/08/06 02:24:25;;;;;;;3.40;1.05;;;;;;;;;;4968074;28;20581;-88
2022/08/06 02:27:01;;;;;;;3.00;1.20;;;;;;;;;;4957384;28;20396;-82
2022/08/06 02:29:55;;;;;;;2.45;1.25;;;;;;;;;;4969374;28;20042;-82
2022/08/06 02:32:33;;;;;;;3.47;1.00;;;;;;;;;;4964893;28;20054;-82
2022/08/06 02:35:27;;;;;;;1.92;1.13;;;;;;;;;;4965640;28;20902;-82
2022/08/06 02:38:02;;;;;;;2.60;1.27;;;;;;;;;;4962345;28;20066;-82
2022/08/06 02:40:54;;;;;;;3.15;1.30;;;;;;;;;;4949799;28;20046;-83
2022/08/06 02:43:45;;;;;;;3.83;1.50;;;;;;;;;;4936747;28;20051;-82
2022/08/06 02:46:43;;;;;;;5.13;1.58;;;;;;;;;;4969432;28;20047;-83
2022/08/06 02:49:18;;;;;;;3.78;1.33;;;;;;;;;;4969668;28;20050;-82
2022/08/06 02:51:56;;;;;;;2.42;1.20;;;;;;;;;;4970226;28;20043;-82
2022/08/06 02:55:16;;;;;;;5.07;1.25;;;;;;;;;;4971390;28;20065;-82
2022/08/06 02:57:52;;;;;;;4.28;1.10;;;;;;;;;;4972654;28;20047;-87
2022/08/06 03:00:32;;;;;;;3.83;1.20;;;;;;;;;;4974499;28;20077;-87
2022/08/06 03:03:02;;;;;;;5.00;1.20;;;;;;;;;;4974889;28;20089;-88
2022/08/06 03:05:50;;;;;;;2.15;1.20;;;;;;;;;;4973475;28;20047;-88
2022/08/06 03:08:24;;;;;;;1.77;1.10;;;;;;;;;;4973419;28;20051;-88
2022/08/06 03:10:55;;;;;;;5.75;1.23;;;;;;;;;;4974152;28;20054;-87
2022/08/06 03:13:24;;;;;;;4.05;1.33;;;;;;;;;;4974886;28;20066;-87
2022/08/06 03:15:59;;;;;;;4.05;1.40;;;;;;;;;;4974469;28;20055;-87
2022/08/06 03:18:30;;;;;;;2.60;1.23;;;;;;;;;;4947471;28;20098;-82
2022/08/06 03:21:05;;;;;;;2.92;1.20;;;;;;;;;;4954881;28;20053;-82
2022/08/06 03:23:42;;;;;;;2.78;1.38;;;;;;;;;;4969677;28;20046;-82
2022/08/06 03:26:12;;;;;;;3.33;1.20;;;;;;;;;;4963887;28;20135;-86
2022/08/06 03:28:40;;;;;;;2.30;1.30;;;;;;;;;;4970758;28;20057;-82
2022/08/06 03:31:10;;;;;;;3.63;1.10;;;;;;;;;;4934494;28;20123;-82
2022/08/06 03:33:44;;;;;;;5.45;1.50;;;;;;;;;;4952320;28;20394;-82
2022/08/06 03:36:22;;;;;;;2.17;1.08;;;;;;;;;;4970332;28;20053;-87
2022/08/06 03:39:03;;;;;;;1.85;1.20;;;;;;;;;;4947695;28;20059;-82
2022/08/06 03:41:44;;;;;;;5.00;1.45;;;;;;;;;;4970125;28;20513;-82
2022/08/06 03:44:31;;;;;;;5.40;1.58;;;;;;;;;;4970345;28;20114;-83
2022/08/06 03:47:28;;;;;;;5.25;1.13;;;;;;;;;;4966804;28;20047;-88
2022/08/06 03:50:26;;;;;;;2.80;1.10;;;;;;;;;;4970113;28;20046;-88
2022/08/06 03:52:59;;;;;;;3.05;1.30;;;;;;;;;;4978135;28;20055;-88
2022/08/06 03:55:39;;;;;;;6.00;1.40;;;;;;;;;;4961216;28;20054;-87
2022/08/06 03:58:15;;;;;;;2.38;1.20;;;;;;;;;;4975549;28;20055;-83
2022/08/06 04:01:10;;;;;;;2.63;1.20;;;;;;;;;;4965675;28;20059;-82
2022/08/06 04:03:39;;;;;;;2.90;1.50;;;;;;;;;;4973864;28;20061;-82
2022/08/06 04:06:11;;;;;;;4.10;1.70;;;;;;;;;;4957139;28;20050;-84
2022/08/06 04:08:44;;;;;;;2.60;1.33;;;;;;;;;;4956587;28;20086;-82
2022/08/06 04:11:16;;;;;;;2.92;1.83;;;;;;;;;;4972308;28;20057;-83
2022/08/06 04:14:10;;;;;;;4.15;1.70;;;;;;;;;;4973293;28;20047;-81
2022/08/06 04:16:38;;;;;;;2.10;1.30;;;;;;;;;;4963887;28;20141;-87
2022/08/06 04:19:32;;;;;;;6.45;1.42;;;;;;;;;;4961925;28;20045;-88
2022/08/06 04:22:05;;;;;;;2.50;1.30;;;;;;;;;;4974426;28;20057;-88
2022/08/06 04:24:53;;;;;;;3.20;1.38;;;;;;;;;;4978792;28;20043;-88
2022/08/06 04:27:27;;;;;;;4.80;1.70;;;;;;;;;;4978854;28;20529;-81
2022/08/06 04:29:59;;;;;;;1.60;0.93;;;;;;;;;;4949132;28;20070;-82
2022/08/06 04:32:31;;;;;;;2.38;1.20;;;;;;;;;;4971561;28;20146;-82
2022/08/06 04:35:07;;;;;;;3.30;1.55;;;;;;;;;;4966427;28;20090;-82
2022/08/06 04:38:04;;;;;;;7.40;2.05;;;;;;;;;;4941962;28;20524;-87
2022/08/06 04:40:35;;;;;;;2.70;1.38;;;;;;;;;;4968334;28;20051;-87
2022/08/06 04:43:21;;;;;;;2.85;1.50;;;;;;;;;;4982565;28;20046;-88
2022/08/06 04:46:07;;;;;;;3.83;1.50;;;;;;;;;;4976286;28;20065;-86
2022/08/06 04:48:46;;;;;;;2.42;1.40;;;;;;;;;;4976623;28;20078;-88
2022/08/06 04:51:17;;;;;;;3.05;1.63;;;;;;;;;;4978319;28;20145;-88
2022/08/06 04:54:09;;;;;;;6.15;1.60;;;;;;;;;;4962868;28;20058;-88
2022/08/06 04:57:03;;;;;;;4.35;1.70;;;;;;;;;;4963333;28;20186;-88
2022/08/06 04:59:59;;;;;;;3.25;1.70;;;;;;;;;;4970104;28;20528;-88
2022/08/06 05:02:27;;;;;;;3.17;1.70;;;;;;;;;;4942030;28;20058;-88
2022/08/06 05:05:24;;;;;;;4.22;1.95;;;;;;;;;;4982440;28;20418;-88
2022/08/06 05:07:59;;;;;;;4.03;1.70;;;;;;;;;;4975873;28;20062;-87
2022/08/06 05:10:35;;;;;;;5.65;1.60;;;;;;;;;;4978291;28;20042;-87
2022/08/06 05:13:05;;;;;;;2.95;1.73;;;;;;;;;;4979053;28;20178;-87
2022/08/06 05:16:02;;;;;;;3.35;1.70;;;;;;;;;;4960258;28;20155;-88
2022/08/06 05:22:16;;;;;;;3.53;1.60;;;;;;;;;;4986043;28;20118;-88
2022/08/06 05:25:08;;;;;;;5.90;1.70;;;;;;;;;;4975643;28;20047;-87
2022/08/06 05:27:47;;;;;;;6.45;2.00;;;;;;;;;;4977687;28;20059;-87
2022/08/06 05:30:44;;;;;;;3.20;1.40;;;;;;;;;;4974200;28;20119;-88
2022/08/06 05:33:36;;;;;;;3.05;1.65;;;;;;;;;;4962919;28;20123;-88
2022/08/06 05:36:10;;;;;;;6.00;1.73;;;;;;;;;;4944662;28;20059;-87
2022/08/06 05:38:46;;;;;;;5.10;1.80;;;;;;;;;;4954534;28;20158;-82
2022/08/06 05:41:30;;;;;;;5.45;1.75;;;;;;;;;;4971384;28;20055;-83
2022/08/06 05:44:04;;;;;;;4.85;1.85;;;;;;;;;;4970863;28;20059;-82
2022/08/06 05:46:40;;;;;;;3.33;1.50;;;;;;;;;;4971689;28;20176;-87
2022/08/06 05:49:14;;;;;;;4.10;1.33;;;;;;;;;;4961799;28;20147;-88
2022/08/06 05:52:15;;;;;;;3.80;1.73;;;;;;;;;;4971295;28;20493;-88
2022/08/06 05:54:50;;;;;;;6.30;1.60;;;;;;;;;;4983615;28;20588;-88
2022/08/06 05:57:57;;;;;;;3.67;1.75;;;;;;;;;;4975439;28;20117;-88
2022/08/06 06:00:32;;;;;;;4.53;1.60;;;;;;;;;;4905641;29;20512;-88
2022/08/06 06:03:15;;;;;;;4.10;1.60;;;;;;;;;;4891888;29;20061;-87
2022/08/06 06:06:17;;;;;;;2.83;1.30;;;;;;;;;;4895937;29;20051;-85
2022/08/06 06:09:11;;;;;;;2.97;1.40;;;;;;;;;;4888822;29;20064;-82
2022/08/06 06:11:44;;;;;;;2.45;1.05;;;;;;;;;;4877959;29;20096;-83
2022/08/06 06:14:54;;;;;;;3.92;1.30;;;;;;;;;;4885505;29;20143;-83
2022/08/06 06:17:33;;;;;;;2.08;1.20;;;;;;;;;;4890277;29;20064;-83
2022/08/06 06:20:27;;;;;;;2.88;1.30;;;;;;;;;;4887225;29;20048;-83
2022/08/06 06:23:23;;;;;;;2.65;1.00;;;;;;;;;;4890238;29;20150;-83
2022/08/06 06:26:27;;;;;;;5.78;1.20;;;;;;;;;;4889243;29;20052;-83
2022/08/06 06:29:16;;;;;;;5.13;1.20;;;;;;;;;;4887950;29;20135;-82
2022/08/06 06:32:17;;;;;;;2.63;1.10;;;;;;;;;;4960139;28;20527;-83
2022/08/06 06:35:07;;;;;;;3.80;1.20;;;;;;;;;;4963255;28;20601;-83
2022/08/06 06:38:22;;;;;;;10.75;1.15;;;;;;;;;;4958868;28;20050;-88
2022/08/06 06:41:26;;;;;;;4.28;1.50;;;;;;;;;;4976448;28;20062;-88
2022/08/06 06:44:18;;;;;;;6.82;1.20;;;;;;;;;;4971742;28;20051;-88
2022/08/06 06:47:40;;;;;;;4.90;1.20;;;;;;;;;;4957652;28;20536;-88
2022/08/06 06:50:15;;;;;;;3.58;1.38;;;;;;;;;;4950026;28;20054;-89
2022/08/06 06:52:51;;;;;;;2.60;1.00;;;;;;;;;;4968405;28;20047;-89
2022/08/06 06:55:33;;;;;;;5.43;1.30;;;;;;;;;;4962328;28;20141;-88
2022/08/06 07:01:53;;;;;;;2.28;0.90;;;;;;;;;;4970104;28;20426;-88
2022/08/06 07:04:29;;;;;;;3.45;1.15;;;;;;;;;;4955839;28;20051;-88
2022/08/06 07:06:59;;;;;;;2.28;0.93;;;;;;;;;;4984359;28;20070;-88
2022/08/06 07:09:37;;;;;;;4.80;1.40;;;;;;;;;;4974655;28;20047;-89
2022/08/06 07:12:28;;;;;;;4.72;1.20;;;;;;;;;;4974595;28;20501;-89
2022/08/06 07:15:01;;;;;;;1.92;1.30;;;;;;;;;;4965188;28;20139;-89
2022/08/06 07:17:32;;;;;;;2.85;1.63;;;;;;;;;;4970121;28;20055;-83
2022/08/06 07:20:21;;;;;;;2.53;0.93;;;;;;;;;;4972713;28;20051;-84
2022/08/06 07:22:59;;;;;;;6.68;1.20;;;;;;;;;;4953604;28;20054;-83
2022/08/06 07:25:54;;;;;;;4.00;0.85;;;;;;;;;;4955019;28;20047;-88
2022/08/06 07:28:25;;;;;;;3.60;1.00;;;;;;;;;;4977124;28;20133;-88
2022/08/06 07:31:18;;;;;;;2.08;1.08;;;;;;;;;;4977704;28;20035;-89
2022/08/06 07:33:56;;;;;;;2.80;0.85;;;;;;;;;;4962472;28;20101;-89
2022/08/06 07:36:37;;;;;;;6.32;0.82;;;;;;;;;;4976659;28;20051;-84
2022/08/06 07:39:13;;;;;;;6.50;1.02;;;;;;;;;;4956674;28;21040;-84
2022/08/06 07:41:50;;;;;;;4.70;1.05;;;;;;;;;;4959014;28;20936;-84
2022/08/06 07:44:41;;;;;;;3.40;0.90;;;;;;;;;;4974672;28;20055;-84
2022/08/06 07:47:34;;;;;;;2.38;0.90;;;;;;;;;;4960753;28;20047;-83
2022/08/06 07:50:27;;;;;;;4.35;0.98;;;;;;;;;;4961555;28;20105;-84
2022/08/06 07:53:01;;;;;;;1.27;0.80;;;;;;;;;;4974360;28;20062;-89
2022/08/06 07:55:30;;;;;;;2.53;0.98;;;;;;;;;;4978045;28;20641;-89
2022/08/06 07:58:08;;;;;;;3.40;0.80;;;;;;;;;;4976502;28;20057;-84
2022/08/06 08:00:36;;;;;;;0.90;0.60;;;;;;;;;;4958247;28;20054;-82
2022/08/06 08:06:25;;;;;;;3.25;0.80;;;;;;;;;;4971923;28;20100;-89
2022/08/06 08:09:06;;;;;;;3.33;0.80;;;;;;;;;;4976366;28;20058;-89
2022/08/06 08:11:41;;;;;;;4.78;0.80;;;;;;;;;;4977256;28;20050;-89
2022/08/06 08:14:30;;;;;;;2.08;0.80;;;;;;;;;;4976049;28;20042;-89
2022/08/06 08:16:59;;;;;;;5.47;0.82;;;;;;;;;;4969128;28;20046;-83
2022/08/06 08:19:37;;;;;;;3.50;1.00;;;;;;;;;;4973084;28;20058;-82
2022/08/06 08:22:15;;;;;;;1.77;0.88;;;;;;;;;;4973520;28;20051;-83
2022/08/06 08:24:56;;;;;;;2.15;0.60;;;;;;;;;;4974319;28;20113;-82
2022/08/06 08:27:23;;;;;;;2.40;0.82;;;;;;;;;;4949709;28;20477;-90
2022/08/06 08:29:55;;;;;;;2.45;0.70;;;;;;;;;;4960121;28;20450;-91
2022/08/06 08:32:25;;;;;;;1.85;0.60;;;;;;;;;;4976557;28;20147;-90
2022/08/06 08:34:54;;;;;;;1.48;0.60;;;;;;;;;;4976554;28;20113;-91
2022/08/06 08:37:29;;;;;;;1.63;0.65;;;;;;;;;;4959499;28;20504;-83
2022/08/06 08:40:00;;;;;;;1.02;0.45;;;;;;;;;;4971512;28;20051;-83
2022/08/06 08:42:39;;;;;;;1.50;0.52;;;;;;;;;;4971769;28;20555;-83
2022/08/06 08:45:08;;;;;;;3.65;0.80;;;;;;;;;;4971527;28;20050;-83
2022/08/06 08:47:50;;;;;;;1.85;0.50;;;;;;;;;;4935993;28;20051;-90
2022/08/06 08:50:28;;;;;;;3.72;0.52;;;;;;;;;;4973715;28;20055;-91
2022/08/06 08:53:05;;;;;;;1.85;0.50;;;;;;;;;;4970801;28;20106;-91
2022/08/06 08:55:39;;;;;;;2.70;0.60;;;;;;;;;;4971257;28;20054;-92
2022/08/06 08:58:28;;;;;;;3.05;0.77;;;;;;;;;;4961609;28;20393;-90
2022/08/06 09:01:10;;;;;;;2.35;0.98;;;;;;;;;;4961934;28;20444;-92
2022/08/06 09:04:04;;;;;;;2.15;0.68;;;;;;;;;;4960538;28;20042;-90
2022/08/06 09:06:34;;;;;;;1.80;0.57;;;;;;;;;;4957974;28;20484;-84
2022/08/06 09:09:06;;;;;;;2.83;0.73;;;;;;;;;;4966381;28;20058;-85
2022/08/06 09:12:07;;;;;;;3.92;0.65;;;;;;;;;;4973220;28;20125;-87
2022/08/06 09:14:55;;;;;;;1.77;0.32;;;;;;;;;;4968616;28;20055;-84
2022/08/06 09:17:30;;;;;;;3.10;0.57;;;;;;;;;;4971214;28;20379;-89
2022/08/06 09:20:17;;;;;;;1.58;0.47;;;;;;;;;;4971480;28;20057;-89
2022/08/06 09:22:50;;;;;;;3.05;0.70;;;;;;;;;;4956667;28;20563;-90
2022/08/06 09:25:37;;;;;;;1.75;0.40;;;;;;;;;;4943519;28;20051;-89
2022/08/06 09:28:43;;;;;;;3.60;0.57;;;;;;;;;;4940543;28;20528;-92
2022/08/06 09:31:12;;;;;;;3.50;0.57;;;;;;;;;;4952827;29;20492;-91
2022/08/06 09:34:04;;;;;;;1.90;0.50;;;;;;;;;;4929551;28;20055;-90
2022/08/06 09:37:29;;;;;;;2.47;0.50;;;;;;;;;;4964771;28;20054;-85
2022/08/06 09:40:22;;;;;;;4.43;0.60;;;;;;;;;;4938989;28;20631;-84
2022/08/06 09:46:43;;;;;;;1.50;0.57;;;;;;;;;;4974388;28;20105;-86
2022/08/06 09:49:17;;;;;;;1.83;0.60;;;;;;;;;;4973654;28;20054;-84
2022/08/06 09:52:14;;;;;;;4.47;0.65;;;;;;;;;;4973804;28;20043;-84
2022/08/06 09:54:45;;;;;;;3.05;0.70;;;;;;;;;;4965053;28;20086;-86
2022/08/06 09:57:43;;;;;;;2.55;0.50;;;;;;;;;;4959392;28;20401;-89
2022/08/06 10:00:29;;;;;;;1.30;0.57;;;;;;;;;;4966991;28;20057;-90
2022/08/06 10:03:07;;;;;;;3.33;0.70;;;;;;;;;;4974034;28;20057;-90
2022/08/06 10:06:03;;;;;;;2.70;0.65;;;;;;;;;;4973453;28;20046;-90
2022/08/06 10:08:31;;;;;;;2.38;0.65;;;;;;;;;;4974365;28;20042;-89
2022/08/06 10:11:02;;;;;;;2.83;0.68;;;;;;;;;;4974789;28;20051;-89
2022/08/06 10:13:35;;;;;;;1.02;0.47;;;;;;;;;;4973705;28;20078;-89
2022/08/06 10:19:21;;;;;;;1.75;0.80;;;;;;;;;;4973621;28;20051;-90
2022/08/06 10:21:49;;;;;;;3.38;0.75;;;;;;;;;;4974191;28;20073;-90
2022/08/06 10:24:19;;;;;;;3.15;0.63;;;;;;;;;;4974701;28;20046;-90
2022/08/06 10:27:07;;;;;;;2.17;0.52;;;;;;;;;;4974740;28;20906;-90
2022/08/06 10:30:07;;;;;;;2.95;1.25;;;;;;;;;;4973817;28;20193;-90
2022/08/06 10:33:06;;;;;;;4.57;0.70;;;;;;;;;;4974316;28;20374;-93
2022/08/06 10:35:46;;;;;;;1.70;0.85;;;;;;;;;;4975126;28;20378;-83
2022/08/06 10:38:48;;;;;;;3.08;0.68;;;;;;;;;;4973724;28;20050;-91
2022/08/06 10:41:21;;;;;;;5.40;0.90;;;;;;;;;;4973628;28;20057;-90
2022/08/06 10:44:14;;;;;;;4.38;0.88;;;;;;;;;;4971733;28;20046;-91
2022/08/06 10:46:42;;;;;;;3.30;0.90;;;;;;;;;;4973436;28;20055;-91
2022/08/06 10:49:13;;;;;;;4.55;0.80;;;;;;;;;;4973920;28;20066;-90
2022/08/06 10:52:07;;;;;;;2.15;0.70;;;;;;;;;;4973918;28;20062;-91
2022/08/06 10:54:36;;;;;;;2.13;0.95;;;;;;;;;;4972129;28;20050;-91
2022/08/06 10:57:18;;;;;;;4.25;0.82;;;;;;;;;;4973674;28;20500;-91
2022/08/06 11:00:05;;;;;;;2.30;1.00;;;;;;;;;;4976249;28;20051;-90
2022/08/06 11:03:12;;;;;;;2.80;1.00;;;;;;;;;;4960816;28;20047;-91
2022/08/06 11:05:40;;;;;;;4.50;1.40;;;;;;;;;;4966917;28;20048;-90
2022/08/06 11:08:36;;;;;;;3.72;1.50;;;;;;;;;;4959305;28;20073;-91
2022/08/06 11:11:26;;;;;;;3.03;1.40;;;;;;;;;;4978987;28;20078;-91
2022/08/06 11:14:10;;;;;;;4.22;1.60;;;;;;;;;;4976859;28;20047;-91
2022/08/06 11:16:56;;;;;;;4.72;1.55;;;;;;;;;;4961038;28;20053;-92
2022/08/06 11:19:40;;;;;;;3.47;1.30;;;;;;;;;;4976321;28;20059;-90
2022/08/06 11:22:41;;;;;;;5.22;1.77;;;;;;;;;;4975503;28;20139;-89
2022/08/06 11:25:41;;;;;;;4.20;2.03;;;;;;;;;;4977892;28;20066;-92
2022/08/06 11:31:27;;;;;;;6.05;2.33;;;;;;;;;;4970889;28;20054;-83
2022/08/06 11:33:55;;;;;;;5.18;1.88;;;;;;;;;;4953868;28;20105;-84
2022/08/06 11:36:25;;;;;;;4.97;2.00;;;;;;;;;;4954686;28;20053;-88
2022/08/06 11:39:20;;;;;;;5.60;2.05;;;;;;;;;;4973756;28;20047;-91
2022/08/06 11:42:03;;;;;;;5.38;2.13;;;;;;;;;;4976379;28;20050;-91
2022/08/06 11:44:34;;;;;;;5.47;2.10;;;;;;;;;;4959558;28;20102;-92
2022/08/06 11:47:19;;;;;;;4.55;2.17;;;;;;;;;;4975157;28;20129;-91
2022/08/06 11:49:50;;;;;;;6.55;2.58;;;;;;;;;;4953872;28;20059;-92
2022/08/06 11:52:34;;;;;;;5.00;2.33;;;;;;;;;;4961162;28;20054;-83
2022/08/06 11:55:08;;;;;;;7.13;2.70;;;;;;;;;;4973892;28;20475;-84
2022/08/06 11:57:48;;;;;;;5.28;2.38;;;;;;;;;;4972062;28;20070;-91
2022/08/06 12:00:20;;;;;;;3.50;2.20;;;;;;;;;;4959533;28;20051;-91
2022/08/06 12:05:47;;;;;;;3.83;2.30;;;;;;;;;;4978203;28;20055;-92
2022/08/06 12:08:27;;;;;;;5.72;2.60;;;;;;;;;;4958867;28;20054;-84
2022/08/06 12:11:40;;;;;;;3.60;1.92;;;;;;;;;;4940718;28;20398;-84
2022/08/06 12:14:37;;;;;;;3.65;2.20;;;;;;;;;;4955014;28;20055;-83
2022/08/06 12:17:14;;;;;;;5.05;2.20;;;;;;;;;;4974322;28;20055;-83
2022/08/06 12:19:45;;;;;;;5.40;2.30;;;;;;;;;;4975050;28;20393;-84
2022/08/06 12:22:32;;;;;;;4.60;2.25;;;;;;;;;;4973789;28;20051;-84
2022/08/06 12:25:04;;;;;;;5.18;2.50;;;;;;;;;;4949811;28;20512;-84
2022/08/06 12:27:37;;;;;;;5.43;2.22;;;;;;;;;;4957565;28;20049;-85
2022/08/06 12:30:50;;;;;;;4.43;2.38;;;;;;;;;;4960842;28;20039;-84
2022/08/06 12:33:21;;;;;;;4.20;1.95;;;;;;;;;;4956618;28;20141;-84
2022/08/06 12:35:59;;;;;;;4.07;2.00;;;;;;;;;;4965366;28;20062;-84
2022/08/06 12:38:31;;;;;;;3.28;1.88;;;;;;;;;;4967199;28;20129;-84
2022/08/06 12:41:08;;;;;;;5.43;1.70;;;;;;;;;;4974571;28;20090;-84
2022/08/06 12:43:43;;;;;;;5.55;2.55;;;;;;;;;;4950190;28;20051;-83
2022/08/06 12:46:25;;;;;;;5.25;2.35;;;;;;;;;;4952940;28;20061;-84
2022/08/06 12:49:29;;;;;;;4.35;2.30;;;;;;;;;;4977823;28;20051;-92
2022/08/06 12:52:23;;;;;;;6.45;2.80;;;;;;;;;;4957318;28;20070;-91
2022/08/06 12:55:17;;;;;;;7.63;3.17;;;;;;;;;;4943804;28;20855;-92
2022/08/06 12:57:46;;;;;;;5.32;3.00;;;;;;;;;;4974568;28;20071;-84
2022/08/06 13:00:33;;;;;;;5.72;2.90;;;;;;;;;;4949291;28;20865;-84
2022/08/06 13:03:11;;;;;;;6.05;2.90;;;;;;;;;;4963365;28;20105;-84
2022/08/06 13:06:08;;;;;;;4.00;2.60;;;;;;;;;;4955575;28;20065;-84
2022/08/06 13:09:09;;;;;;;4.22;2.47;;;;;;;;;;4975335;28;20050;-92
2022/08/06 13:11:40;;;;;;;4.38;2.60;;;;;;;;;;4976696;28;20129;-91
2022/08/06 13:14:12;;;;;;;4.95;2.88;;;;;;;;;;4973486;28;20075;-92
2022/08/06 13:16:47;;;;;;;4.57;2.75;;;;;;;;;;4959610;28;20929;-85
2022/08/06 13:19:56;;;;;;;7.35;3.20;;;;;;;;;;4974412;28;20991;-84
2022/08/06 13:22:24;;;;;;;6.53;3.22;;;;;;;;;;4956871;28;20145;-81
2022/08/06 13:25:12;;;;;;;4.68;2.50;;;;;;;;;;4972702;28;20047;-86
2022/08/06 13:28:10;;;;;;;14.30;6.95;;;;;;;;;;4974629;28;20051;-85
2022/08/06 13:31:25;;;;;;;8.75;4.00;;;;;;;;;;4960572;28;20105;-85
2022/08/06 13:34:16;;;;;;;6.20;3.60;;;;;;;;;;4975334;28;20505;-85
2022/08/06 13:37:09;;;;;;;5.85;2.90;;;;;;;;;;4974269;28;20173;-85
2022/08/06 13:39:51;;;;;;;9.38;4.78;;;;;;;;;;4971865;28;20047;-85
2022/08/06 13:42:21;;;;;;;7.85;3.47;;;;;;;;;;4975150;28;20066;-86
2022/08/06 13:44:55;;;;;;;6.35;3.22;;;;;;;;;;4976026;28;20055;-85
2022/08/06 13:47:28;;;;;;;6.38;3.60;;;;;;;;;;4974391;28;20078;-84
2022/08/06 13:50:18;;;;;;;5.35;3.28;;;;;;;;;;4974924;28;20453;-86
2022/08/06 13:52:45;;;;;;;5.57;3.00;;;;;;;;;;4959889;28;20501;-85
2022/08/06 13:55:25;;;;;;;5.97;3.20;;;;;;;;;;4955396;28;20054;-84
2022/08/06 13:58:13;;;;;;;7.32;3.67;;;;;;;;;;4958288;28;20105;-92
2022/08/06 14:00:45;;;;;;;7.28;3.60;;;;;;;;;;4959191;28;20050;-91
2022/08/06 14:03:13;;;;;;;5.53;3.30;;;;;;;;;;4965130;28;20054;-91
2022/08/06 14:05:41;;;;;;;7.43;3.65;;;;;;;;;;4959954;28;20046;-90
2022/08/06 14:08:43;;;;;;;6.47;3.58;;;;;;;;;;4975502;28;20141;-90
2022/08/06 14:11:19;;;;;;;8.40;3.67;;;;;;;;;;4959379;28;20051;-92
2022/08/06 14:13:47;;;;;;;9.13;3.83;;;;;;;;;;4960575;28;20051;-91
2022/08/06 14:16:39;;;;;;;6.22;3.50;;;;;;;;;;4972163;28;20554;-86
2022/08/06 14:19:07;;;;;;;9.45;3.95;;;;;;;;;;4972448;28;20059;-86
2022/08/06 14:21:55;;;;;;;5.85;3.78;;;;;;;;;;4941323;28;20137;-85
2022/08/06 14:24:29;;;;;;;7.95;4.00;;;;;;;;;;4974440;28;20101;-86
2022/08/06 14:27:07;;;;;;;7.70;3.97;;;;;;;;;;4972933;28;20078;-91
2022/08/06 14:29:42;;;;;;;6.93;3.88;;;;;;;;;;4937079;28;20046;-93
2022/08/06 14:32:29;;;;;;;8.55;4.22;;;;;;;;;;4977634;28;20081;-92
2022/08/06 14:34:58;;;;;;;5.75;3.78;;;;;;;;;;4958043;28;20065;-92
2022/08/06 14:37:32;;;;;;;6.63;4.03;;;;;;;;;;4974265;28;20051;-84
2022/08/06 14:44:54;;;;;;;7.15;3.60;;;;;;;;;;4956251;28;20490;-84
2022/08/06 14:46:25;;;;;;;7.00;4.25;;;;;;;;;;4971418;28;20614;-90
2022/08/06 14:48:57;;;;;;;7.50;4.38;;;;;;;;;;4966205;28;20039;-84
2022/08/06 14:51:26;;;;;;;7.18;4.57;;;;;;;;;;4956188;28;20041;-84
2022/08/06 14:54:15;;;;;;;8.20;4.63;;;;;;;;;;4970025;28;20050;-84
2022/08/06 14:56:47;;;;;;;9.75;4.32;;;;;;;;;;4957770;28;20515;-84
2022/08/06 14:59:21;;;;;;;8.55;4.38;;;;;;;;;;4968570;28;20082;-84
2022/08/06 15:02:14;;;;;;;7.57;4.57;;;;;;;;;;4972395;28;20054;-84
2022/08/06 15:04:52;;;;;;;11.02;4.50;;;;;;;;;;4955177;28;20042;-84
2022/08/06 15:07:23;;;;;;;6.95;4.38;;;;;;;;;;4951301;28;20047;-91
2022/08/06 15:10:13;;;;;;;7.82;4.72;;;;;;;;;;4973081;28;20105;-90
2022/08/06 15:12:53;;;;;;;8.32;4.43;;;;;;;;;;4955125;28;20417;-91
2022/08/06 15:15:31;;;;;;;8.65;5.10;;;;;;;;;;4972166;28;20052;-89
2022/08/06 15:21:29;;;;;;;9.80;4.45;;;;;;;;;;4956442;28;20134;-89
2022/08/06 15:24:15;;;;;;;8.15;4.30;;;;;;;;;;4973060;28;20137;-89
2022/08/06 15:26:43;;;;;;;8.48;4.47;;;;;;;;;;4972542;28;20106;-84
2022/08/06 15:29:16;;;;;;;8.32;4.65;;;;;;;;;;4955790;28;20053;-84
2022/08/06 15:31:44;;;;;;;7.20;4.30;;;;;;;;;;4966103;28;20054;-84
2022/08/06 15:34:17;;;;;;;7.00;4.60;;;;;;;;;;4972046;28;20051;-84
2022/08/06 15:36:55;;;;;;;8.55;4.03;;;;;;;;;;4972397;28;20097;-89
2022/08/06 15:39:32;;;;;;;5.78;3.97;;;;;;;;;;4974339;28;20142;-88
2022/08/06 15:42:21;;;;;;;6.15;4.00;;;;;;;;;;4972177;28;20051;-89
2022/08/06 15:45:13;;;;;;;8.65;4.00;;;;;;;;;;4972973;28;20173;-88
2022/08/06 15:48:05;;;;;;;5.82;4.22;;;;;;;;;;4976571;28;20137;-88
2022/08/06 15:50:33;;;;;;;7.22;4.10;;;;;;;;;;4960165;28;20046;-88
2022/08/06 15:53:16;;;;;;;10.15;4.53;;;;;;;;;;4961225;28;20047;-88
2022/08/06 15:55:49;;;;;;;7.60;4.15;;;;;;;;;;4959980;28;20085;-88
2022/08/06 15:58:20;;;;;;;6.18;3.88;;;;;;;;;;4960237;28;20106;-89
2022/08/06 16:00:58;;;;;;;7.63;4.03;;;;;;;;;;4978132;28;20054;-89
2022/08/06 16:03:35;;;;;;;9.30;4.30;;;;;;;;;;4977506;28;20086;-87
2022/08/06 16:06:23;;;;;;;7.50;3.75;;;;;;;;;;4977436;28;20046;-88
2022/08/06 16:09:15;;;;;;;8.13;4.03;;;;;;;;;;4959681;28;20039;-88
2022/08/06 16:11:57;;;;;;;6.00;4.20;;;;;;;;;;4978453;28;20056;-88
2022/08/06 16:14:50;;;;;;;7.68;3.97;;;;;;;;;;4976509;28;20490;-89
2022/08/06 16:17:29;;;;;;;7.15;4.55;;;;;;;;;;4975215;28;20039;-85
2022/08/06 16:20:18;;;;;;;6.72;3.83;;;;;;;;;;4976392;28;20078;-84
2022/08/06 16:23:15;;;;;;;7.63;3.85;;;;;;;;;;4977701;28;20419;-85
2022/08/06 16:26:03;;;;;;;13.43;5.10;;;;;;;;;;4976339;28;20047;-84
2022/08/06 16:28:51;;;;;;;6.90;3.88;;;;;;;;;;4971558;28;20042;-88
2022/08/06 16:31:19;;;;;;;9.63;4.20;;;;;;;;;;4958408;28;20069;-89
2022/08/06 16:33:47;;;;;;;7.13;4.10;;;;;;;;;;4976245;28;20050;-88
2022/08/06 16:36:39;;;;;;;7.72;4.15;;;;;;;;;;4958896;28;20047;-89
2022/08/06 16:39:09;;;;;;;6.68;3.65;;;;;;;;;;4960679;28;20085;-89
2022/08/06 16:41:40;;;;;;;6.60;3.97;;;;;;;;;;4953348;28;20055;-89